Piarco International Airport Port of Spain TT
ICAO: TTPP
IATA: POS
Category: Medium
Scheduled Services:

Elevation: 58 ft
TransAlt. 4100 ft.

Airport Communications:
ACC:123.7
APP:119
ATIS:126.7
GND:121.9
APRON:121.75
RDO:552.6
TWR:118.1

TTPP Zoom In..

Runways:

(A) RW 10 length 10495 ft width 148 ft
ILS 109.70 / hdg 104

(B) RW 28 length 10495 ft width 148 ft
---- / hdg 284

Location; TTPP
Day. 06 / Time. 22.00 Zulu
* QNH: 1013
* Temperature: 29° c. 84.2°f.
* Wind from: 100° Speed 08 kn.
Dewpoint: 23° c.
Visibility: 10 km or more.
Clouds: Few 1800 ft.
No significant changes expected in the near future.

TTPP 062200Z 10008KT 9999 FEW018 29/23 Q1013 NOSIG


Wind From 100°
Speed 08 kn.

 
 
jpsmedia worldairports.se 2020   terms of use